createdAt,value
2022-11-15T00:00:37.035Z,8.400000
2022-11-15T00:05:18.455Z,11.000000
2022-11-15T00:10:21.156Z,11.000000
2022-11-15T00:15:23.409Z,11.000000
2022-11-15T00:20:27.600Z,11.200000
2022-11-15T00:25:31.534Z,14.000000
2022-11-15T00:30:34.910Z,13.866667
2022-11-15T00:35:17.557Z,13.000000
2022-11-15T00:40:21.060Z,12.200000
2022-11-15T00:45:23.739Z,7.000000
2022-11-15T00:50:26.804Z,7.200000
2022-11-15T00:55:30.411Z,10.000000
2022-11-15T01:00:34.760Z,10.400000
2022-11-15T01:05:17.802Z,13.000000
2022-11-15T01:10:22.697Z,12.928571
2022-11-15T01:15:26.150Z,12.000000
2022-11-15T01:20:30.090Z,12.000000
2022-11-15T01:25:34.109Z,12.000000
2022-11-15T01:30:17.189Z,12.133333
2022-11-15T01:35:21.040Z,13.000000
2022-11-15T01:40:23.923Z,13.071429
2022-11-15T01:45:26.599Z,14.000000
2022-11-15T01:50:29.431Z,14.000000
2022-11-15T01:55:32.972Z,14.000000
2022-11-15T02:00:35.251Z,13.733333
2022-11-15T02:05:19.268Z,12.000000
2022-11-15T02:10:22.251Z,12.285714
2022-11-15T02:15:26.246Z,16.000000
2022-11-15T02:20:29.457Z,15.933333
2022-11-15T02:25:33.236Z,15.000000
2022-11-15T02:30:16.286Z,15.000000
2022-11-15T02:35:20.272Z,15.000000
2022-11-15T02:40:25.231Z,14.714286
2022-11-15T02:45:28.072Z,11.000000
2022-11-15T02:50:32.750Z,11.266667
2022-11-15T02:55:35.943Z,15.000000
2022-11-15T03:00:18.552Z,15.533333
2022-11-15T03:05:23.129Z,19.000000
2022-11-15T03:10:25.741Z,18.928571
2022-11-15T03:15:29.607Z,18.000000
2022-11-15T03:20:33.657Z,17.466667
2022-11-15T03:25:17.232Z,14.000000
2022-11-15T03:30:23.159Z,14.357143
2022-11-15T03:35:25.619Z,19.000000
2022-11-15T03:40:28.618Z,18.933333
2022-11-15T03:45:31.608Z,18.000000
2022-11-15T03:50:35.179Z,17.866667
2022-11-15T03:55:17.991Z,17.000000
2022-11-15T04:00:22.280Z,18.333333
2022-11-15T04:05:24.724Z,27.000000
2022-11-15T04:10:27.149Z,26.533333
2022-11-15T04:15:30.557Z,20.000000
2022-11-15T04:20:34.613Z,20.000000
2022-11-15T04:25:20.668Z,20.000000
2022-11-15T04:30:21.478Z,19.866667
2022-11-15T04:35:25.503Z,19.000000
2022-11-15T04:40:29.604Z,19.266667
2022-11-15T04:45:34.973Z,23.000000
2022-11-15T04:50:17.304Z,22.866667
2022-11-15T04:55:21.114Z,22.000000
2022-11-15T05:00:23.795Z,22.142857
2022-11-15T05:05:26.817Z,24.000000
2022-11-15T05:10:29.817Z,24.066667
2022-11-15T05:15:34.175Z,25.000000
2022-11-15T05:20:16.803Z,24.600000
2022-11-15T05:25:20.208Z,22.000000
2022-11-15T05:30:23.119Z,22.000000
2022-11-15T05:35:26.394Z,22.000000
2022-11-15T05:40:29.102Z,21.800000
2022-11-15T05:45:32.957Z,19.000000
2022-11-15T05:50:16.660Z,19.133333
2022-11-15T05:55:20.224Z,20.000000
2022-11-15T06:00:25.633Z,20.285714
2022-11-15T06:05:29.117Z,24.000000
2022-11-15T06:10:32.194Z,23.800000
2022-11-15T06:15:35.631Z,21.000000
2022-11-15T06:20:21.306Z,21.266667
2022-11-15T06:25:23.451Z,23.000000
2022-11-15T06:30:28.236Z,22.933333
2022-11-15T06:35:31.739Z,22.000000
2022-11-15T06:40:16.159Z,21.733333
2022-11-15T06:45:19.122Z,20.000000
2022-11-15T06:50:23.694Z,20.000000
2022-11-15T06:55:27.582Z,20.000000
2022-11-15T07:00:31.036Z,20.133333
2022-11-15T07:05:35.366Z,22.000000
2022-11-15T07:10:19.813Z,22.133333
2022-11-15T07:15:21.577Z,23.000000
2022-11-15T07:20:25.877Z,23.133333
2022-11-15T07:25:27.577Z,25.000000
2022-11-15T07:30:30.469Z,24.800000
2022-11-15T07:35:33.408Z,22.000000
2022-11-15T07:40:16.357Z,22.533333
2022-11-15T07:45:20.059Z,26.000000
2022-11-15T07:50:23.419Z,26.000000
2022-11-15T07:55:29.799Z,26.000000
2022-11-15T08:00:32.638Z,25.933333
2022-11-15T08:05:35.875Z,25.000000
2022-11-15T08:10:19.551Z,25.266667
2022-11-15T08:15:21.435Z,27.000000
2022-11-15T08:20:24.928Z,26.857143
2022-11-15T08:25:27.791Z,25.000000
2022-11-15T08:30:32.570Z,24.933333
2022-11-15T08:35:35.851Z,24.000000
2022-11-15T08:40:19.100Z,24.666667
2022-11-15T08:45:23.213Z,29.000000
2022-11-15T08:50:26.975Z,28.933333
2022-11-15T08:55:30.004Z,28.000000
2022-11-15T09:00:32.528Z,27.733333
2022-11-15T09:05:35.752Z,24.000000
2022-11-15T09:10:19.484Z,23.866667
2022-11-15T09:15:23.962Z,23.000000
2022-11-15T09:20:26.589Z,22.666667
2022-11-15T09:25:29.810Z,18.000000
2022-11-15T09:30:34.088Z,18.400000
2022-11-15T09:35:16.428Z,21.000000
2022-11-15T09:40:20.301Z,20.600000
2022-11-15T09:45:22.899Z,18.000000
2022-11-15T09:50:27.446Z,17.866667
2022-11-15T09:55:31.354Z,16.000000
2022-11-15T10:00:49.874Z,16.533333
2022-11-15T10:05:17.292Z,20.000000
2022-11-15T10:10:21.312Z,19.333333
2022-11-15T10:15:24.581Z,15.000000
2022-11-15T10:20:29.745Z,15.333333
2022-11-15T10:25:31.875Z,20.000000
2022-11-15T10:30:35.132Z,20.000000
2022-11-15T10:35:19.027Z,20.000000
2022-11-15T10:40:22.446Z,20.142857
2022-11-15T10:45:25.049Z,22.000000
2022-11-15T10:50:28.770Z,24.000000
2022-11-15T10:55:31.641Z,52.000000
2022-11-15T11:00:35.906Z,48.000000
2022-11-15T11:05:18.236Z,22.000000
2022-11-15T11:10:50.799Z,23.200000
2022-11-15T11:15:23.362Z,31.000000
2022-11-15T11:20:25.994Z,30.466667
2022-11-15T11:25:28.885Z,23.000000
2022-11-15T11:30:31.863Z,23.000000
2022-11-15T11:35:35.144Z,23.000000
2022-11-15T11:40:17.311Z,22.866667
2022-11-15T11:45:20.820Z,22.000000
2022-11-15T11:50:23.386Z,21.642857
2022-11-15T11:55:26.784Z,17.000000
2022-11-15T12:00:30.436Z,17.200000
2022-11-15T12:05:34.504Z,20.000000
2022-11-15T12:10:18.071Z,20.400000
2022-11-15T12:15:21.000Z,23.000000
2022-11-15T12:20:24.643Z,22.928571
2022-11-15T12:25:28.048Z,22.000000
2022-11-15T12:30:31.933Z,22.000000
2022-11-15T12:35:35.235Z,22.000000
2022-11-15T12:40:17.738Z,22.266667
2022-11-15T12:45:20.882Z,24.000000
2022-11-15T12:50:25.725Z,23.500000
2022-11-15T12:55:27.907Z,17.000000
2022-11-15T13:00:31.436Z,17.066667
2022-11-15T13:05:35.775Z,18.000000
2022-11-15T13:10:17.895Z,18.133333
2022-11-15T13:15:21.461Z,19.000000
2022-11-15T13:20:24.307Z,19.071429
2022-11-15T13:25:27.406Z,20.000000
2022-11-15T13:30:16.058Z,20.000000
2022-11-15T13:35:20.512Z,21.000000
2022-11-15T13:40:23.527Z,20.714286
2022-11-15T13:45:27.286Z,17.000000
2022-11-15T13:50:29.804Z,17.133333
2022-11-15T13:55:33.140Z,19.000000
2022-11-15T14:00:16.886Z,19.133333
2022-11-15T14:05:20.189Z,20.000000
2022-11-15T14:10:23.178Z,20.071429
2022-11-15T14:15:26.222Z,21.000000
2022-11-15T14:20:28.806Z,20.933333
2022-11-15T14:25:33.446Z,20.000000
2022-11-15T14:30:16.786Z,19.866667
2022-11-15T14:35:18.843Z,19.000000
2022-11-15T14:40:22.888Z,19.357143
2022-11-15T14:45:25.528Z,24.000000
2022-11-15T14:50:29.654Z,24.533333
2022-11-15T14:55:33.224Z,32.000000
2022-11-15T15:00:16.661Z,32.533333
2022-11-15T15:05:21.448Z,36.000000
2022-11-15T15:10:39.384Z,35.000000
2022-11-15T15:15:29.185Z,22.000000
2022-11-15T15:20:32.525Z,21.866667
2022-11-15T15:25:17.368Z,20.000000
2022-11-15T15:30:20.307Z,20.666667
2022-11-15T15:35:23.271Z,25.000000
2022-11-15T15:40:26.845Z,25.200000
2022-11-15T15:45:29.885Z,28.000000
2022-11-15T15:50:33.496Z,27.400000
2022-11-15T15:55:35.554Z,19.000000
2022-11-15T16:00:18.828Z,19.000000
2022-11-15T16:05:21.820Z,19.000000
2022-11-15T16:10:25.675Z,18.785714
2022-11-15T16:15:29.452Z,16.000000
2022-11-15T16:20:32.700Z,16.266667
2022-11-15T16:25:35.904Z,20.000000
2022-11-15T16:30:19.575Z,19.866667
2022-11-15T16:35:22.483Z,19.000000
2022-11-15T16:40:27.494Z,19.000000
2022-11-15T16:45:31.374Z,19.000000
2022-11-15T16:50:34.408Z,18.600000
2022-11-15T16:55:17.477Z,16.000000
2022-11-15T17:00:20.837Z,16.000000
2022-11-15T17:05:24.274Z,16.000000
2022-11-15T17:10:27.146Z,15.733333
2022-11-15T17:15:30.395Z,12.000000
2022-11-15T17:20:34.737Z,12.533333
2022-11-15T17:25:17.290Z,16.000000
2022-11-15T17:30:19.914Z,16.266667
2022-11-15T17:35:34.921Z,18.000000
2022-11-15T17:40:28.284Z,17.800000
2022-11-15T17:45:30.964Z,15.000000
2022-11-15T17:50:34.259Z,14.866667
2022-11-15T17:55:16.934Z,14.000000
2022-11-15T18:00:21.077Z,14.266667
2022-11-15T18:05:24.699Z,16.000000
2022-11-15T18:10:27.746Z,15.933333
2022-11-15T18:15:31.020Z,15.000000
2022-11-15T18:20:35.792Z,14.333333
2022-11-15T18:25:18.101Z,10.000000
2022-11-15T18:30:21.484Z,10.000000
2022-11-15T18:35:24.877Z,10.000000
2022-11-15T18:40:28.447Z,10.200000
2022-11-15T18:45:32.461Z,13.000000
2022-11-15T18:50:16.174Z,12.866667
2022-11-15T18:55:19.352Z,12.000000
2022-11-15T19:00:23.045Z,12.266667
2022-11-15T19:05:26.433Z,14.000000
2022-11-15T19:10:31.092Z,13.866667
2022-11-15T19:15:33.879Z,12.000000
2022-11-15T19:20:18.521Z,12.133333
2022-11-15T19:25:20.888Z,13.000000
2022-11-15T19:30:24.580Z,12.857143
2022-11-15T19:35:27.793Z,11.000000
2022-11-15T19:40:31.096Z,11.000000
2022-11-15T19:45:34.122Z,11.000000
2022-11-15T19:50:17.448Z,10.866667
2022-11-15T19:55:20.408Z,10.000000
2022-11-15T20:00:24.652Z,10.000000
2022-11-15T20:05:27.970Z,10.000000
2022-11-15T20:10:30.474Z,10.000000
2022-11-15T20:15:33.681Z,10.000000
2022-11-15T20:20:17.268Z,10.000000
2022-11-15T20:25:20.646Z,10.000000
2022-11-15T20:30:25.268Z,9.857143
2022-11-15T20:35:28.129Z,8.000000
2022-11-15T20:40:31.312Z,8.133333
2022-11-15T20:45:34.728Z,10.000000
2022-11-15T20:50:40.880Z,9.866667
2022-11-15T20:55:20.472Z,9.000000
2022-11-15T21:00:23.715Z,9.000000
2022-11-15T21:05:26.824Z,9.000000
2022-11-15T21:10:33.047Z,9.000000
2022-11-15T21:15:36.346Z,9.000000
2022-11-15T21:20:19.227Z,8.866667
2022-11-15T21:25:22.982Z,8.000000
2022-11-15T21:30:25.376Z,8.000000
2022-11-15T21:35:29.697Z,8.000000
2022-11-15T21:40:32.250Z,8.000000
2022-11-15T21:45:35.625Z,8.000000
2022-11-15T21:50:20.544Z,8.133333
2022-11-15T21:55:23.312Z,9.000000
2022-11-15T22:00:27.429Z,8.933333
2022-11-15T22:05:30.634Z,8.000000
2022-11-15T22:10:33.916Z,8.000000
2022-11-15T22:15:17.340Z,8.000000
2022-11-15T22:20:43.686Z,8.000000
2022-11-15T22:25:23.247Z,8.000000
2022-11-15T22:30:28.274Z,8.066667
2022-11-15T22:35:33.855Z,9.000000
2022-11-15T22:40:35.778Z,8.733333
2022-11-15T22:45:18.432Z,7.000000
2022-11-15T22:50:23.395Z,7.000000
2022-11-15T22:55:26.943Z,7.000000
2022-11-15T23:00:30.780Z,7.066667
2022-11-15T23:05:33.798Z,8.000000
2022-11-15T23:10:17.173Z,7.866667
2022-11-15T23:15:21.827Z,7.000000
2022-11-15T23:20:42.447Z,7.071429
2022-11-15T23:25:30.254Z,8.000000
2022-11-15T23:30:33.224Z,7.933333
2022-11-15T23:35:16.428Z,7.000000
2022-11-15T23:40:19.317Z,7.133333
2022-11-15T23:45:22.152Z,8.000000
2022-11-15T23:50:24.568Z,7.933333
2022-11-15T23:55:27.333Z,7.000000
